This is the latest recevied weather packets stored in our database for station/object TVARMINN. If no packets are shown the sender has not sent any weather packets the latest 1 day(s).
| Time | Temp. | Humidity | Pressure | Rain* | Wind** | Luminosity | Snow |
|---|---|---|---|---|---|---|---|
| 1778081245 | 9.44° C | 38% | 1014.4 hPa | 0 mm | - | - | - |
| 1778080044 | 9.44° C | 39% | 1014.5 hPa | 0 mm | - | - | - |
| 1778075244 | 8.33° C | 49% | 1014.7 hPa | 0 mm | - | - | - |
| 1778072843 | 8.89° C | 50% | 1014.8 hPa | 0 mm | - | - | - |
| 1778068044 | 8.89° C | 55% | 1014.9 hPa | 0 mm | - | - | - |
| 1778066844 | 8.33° C | 63% | 1014.9 hPa | 0 mm | - | - | - |
| 1778065643 | 8.33° C | 63% | 1014.8 hPa | 0 mm | - | - | - |
| 1778063245 | 8.33° C | 68% | 1014.7 hPa | 0 mm | - | - | - |
| 1778059645 | 8.89° C | 51% | 1014.1 hPa | 0 mm | - | - | - |
| 1778057245 | 10° C | 39% | 1013.9 hPa | 0 mm | - | - | - |
| 1778056045 | 8.33° C | 68% | 1013.9 hPa | 0 mm | - | - | - |
| 1778054844 | 7.78° C | 72% | 1013.9 hPa | 0 mm | - | - | - |
| 1778053645 | 7.78° C | 73% | 1013.8 hPa | 0 mm | - | - | - |
| 1778052446 | 7.78° C | 72% | 1013.6 hPa | 0 mm | - | - | - |
| 1778051245 | 8.33° C | 68% | 1013.5 hPa | 0 mm | - | - | - |
| 1778050045 | 7.78° C | 55% | 1013.3 hPa | 0 mm | - | - | - |
| 1778048845 | 7.78° C | 55% | 1013.2 hPa | 0 mm | - | - | - |
| 1778046444 | 7.22° C | 56% | 1013 hPa | 0 mm | - | - | - |
| 1778045245 | 6.67° C | 60% | 1012.8 hPa | 0 mm | - | - | - |
| 1778044044 | 6.67° C | 64% | 1012.6 hPa | 0 mm | - | - | - |
| 1778042844 | 5.56° C | 71% | 1012.4 hPa | 0 mm | - | - | - |
| 1778041644 | 5° C | 77% | 1012.2 hPa | 0 mm | - | - | - |
| 1778040444 | 4.44° C | 82% | 1012.1 hPa | 0 mm | - | - | - |
| 1778039244 | 3.33° C | 88% | 1011.8 hPa | 0 mm | - | - | - |
| 1778036844 | 2.78° C | 92% | 1011.6 hPa | 0 mm | - | - | - |
* Rain latest hour (hover to see other rain measurements)
** Current wind speed in m/s (hover to see current wind gust speed)